Time;durP1;ratioP1;P1;durP2;ratioP2;P2;SDS_P1;SDS_P2;PMS_P1;PMS_P2;Temp;Humidity;BMP_temperature;BMP_pressure;BME280_temperature;BME280_humidity;BME280_pressure;Samples;Min_cycle;Max_cycle;Signal;HPM_P1;HPM_P2
2021/10/18 00:01:40;;;;;;;0.80;0.80;;;-2.10;99.90;;;;;;5032804;28;20217;-72
2021/10/18 00:04:05;;;;;;;0.80;0.80;;;-2.20;99.90;;;;;;5051023;28;20350;-71
2021/10/18 00:06:32;;;;;;;0.77;0.77;;;-2.20;99.90;;;;;;5050573;28;20922;-72
2021/10/18 00:08:58;;;;;;;0.80;0.80;;;-2.20;99.90;;;;;;5049562;28;20216;-71
2021/10/18 00:11:24;;;;;;;0.85;0.85;;;-2.20;99.90;;;;;;5050857;28;20225;-71
2021/10/18 00:13:52;;;;;;;0.80;0.80;;;-2.20;99.90;;;;;;5033192;28;20225;-72
2021/10/18 00:16:17;;;;;;;0.80;0.80;;;-2.20;99.90;;;;;;5050820;28;20202;-72
2021/10/18 00:18:43;;;;;;;0.90;0.90;;;-2.20;99.90;;;;;;5051650;28;20727;-71
2021/10/18 00:21:09;;;;;;;0.80;0.80;;;-2.20;99.90;;;;;;5047746;28;20625;-72
2021/10/18 00:23:37;;;;;;;0.90;0.90;;;-2.20;99.90;;;;;;5033070;28;20213;-72
2021/10/18 00:26:03;;;;;;;0.90;0.90;;;-2.20;99.90;;;;;;5051569;28;20575;-71
2021/10/18 00:28:29;;;;;;;0.73;0.73;;;-2.20;99.90;;;;;;5050828;28;20201;-71
2021/10/18 00:30:55;;;;;;;0.80;0.80;;;-2.20;99.90;;;;;;5033082;28;20202;-72
2021/10/18 00:33:22;;;;;;;0.80;0.80;;;-2.20;99.90;;;;;;5033424;28;20576;-71
2021/10/18 00:35:48;;;;;;;0.80;0.80;;;-2.30;99.90;;;;;;5046145;28;20255;-72
2021/10/18 00:38:14;;;;;;;0.90;0.90;;;-2.30;99.90;;;;;;5048003;28;20205;-71
2021/10/18 00:40:39;;;;;;;0.90;0.90;;;-2.30;99.90;;;;;;5050815;28;20575;-71
2021/10/18 00:43:05;;;;;;;0.90;0.90;;;-2.30;99.90;;;;;;5049143;28;20205;-71
2021/10/18 00:45:31;;;;;;;1.00;1.00;;;-2.30;99.90;;;;;;5051190;28;20770;-71
2021/10/18 00:47:58;;;;;;;0.80;0.80;;;-2.40;99.90;;;;;;5050087;28;20213;-71
2021/10/18 00:50:24;;;;;;;0.80;0.80;;;-2.30;99.90;;;;;;5048693;28;20252;-71
2021/10/18 00:52:51;;;;;;;0.80;0.80;;;-2.20;99.90;;;;;;5033794;28;20197;-71
2021/10/18 00:55:17;;;;;;;0.82;0.82;;;-2.10;99.90;;;;;;5033840;28;20699;-71
2021/10/18 00:57:43;;;;;;;0.90;0.90;;;-2.10;99.90;;;;;;5033408;28;20207;-71
2021/10/18 01:00:10;;;;;;;0.70;0.70;;;-2.00;99.90;;;;;;5050409;28;20197;-71
2021/10/18 01:02:37;;;;;;;0.90;0.90;;;-2.00;99.90;;;;;;5054333;23;20229;-69
2021/10/18 01:05:03;;;;;;;0.80;0.80;;;-2.00;99.90;;;;;;5031815;28;20213;-69
2021/10/18 01:07:29;;;;;;;0.88;0.88;;;-2.00;99.90;;;;;;5049309;28;20225;-69
2021/10/18 01:09:55;;;;;;;0.90;0.90;;;-2.00;99.90;;;;;;5049411;28;20197;-69
2021/10/18 01:12:21;;;;;;;0.88;0.88;;;-2.00;99.90;;;;;;5048567;28;20209;-69
2021/10/18 01:14:47;;;;;;;0.82;0.82;;;-2.00;99.90;;;;;;5051097;28;20202;-68
2021/10/18 01:17:12;;;;;;;0.80;0.80;;;-2.10;99.90;;;;;;5051327;28;20209;-69
2021/10/18 01:19:38;;;;;;;0.75;0.75;;;-2.20;99.90;;;;;;5050644;28;20210;-69
2021/10/18 01:22:04;;;;;;;0.90;0.90;;;-2.30;99.90;;;;;;5049483;28;20284;-69
2021/10/18 01:24:31;;;;;;;0.88;0.88;;;-2.40;99.90;;;;;;5048071;28;20210;-69
2021/10/18 01:26:57;;;;;;;0.85;0.85;;;-2.40;99.90;;;;;;5049985;28;20205;-69
2021/10/18 01:29:23;;;;;;;0.80;0.80;;;-2.50;99.90;;;;;;5047969;28;20579;-69
2021/10/18 01:31:49;;;;;;;0.90;0.90;;;-2.50;99.90;;;;;;5051099;28;20212;-68
2021/10/18 01:34:15;;;;;;;0.90;0.90;;;-2.40;99.90;;;;;;5047721;28;20676;-68
2021/10/18 01:36:42;;;;;;;0.98;0.98;;;-2.40;99.90;;;;;;5050323;28;20284;-68
2021/10/18 01:39:08;;;;;;;0.80;0.80;;;-2.40;99.90;;;;;;5052745;28;20217;-70
2021/10/18 01:41:33;;;;;;;0.95;0.95;;;-2.40;99.90;;;;;;5036144;28;20212;-69
2021/10/18 01:43:59;;;;;;;0.90;0.90;;;-2.40;99.90;;;;;;5046550;28;20217;-69
2021/10/18 01:46:25;;;;;;;0.90;0.90;;;-2.50;99.90;;;;;;5025826;28;20216;-69
2021/10/18 01:48:50;;;;;;;0.90;0.90;;;-2.50;99.90;;;;;;5035131;28;20197;-69
2021/10/18 01:51:16;;;;;;;0.80;0.80;;;-2.60;99.90;;;;;;5051685;28;20277;-68
2021/10/18 01:53:42;;;;;;;0.80;0.80;;;-2.50;99.90;;;;;;5054084;28;20193;-68
2021/10/18 01:56:08;;;;;;;0.90;0.90;;;-2.50;99.90;;;;;;5053824;28;20209;-69
2021/10/18 01:58:34;;;;;;;0.90;0.90;;;-2.50;99.90;;;;;;5034510;28;20668;-69
2021/10/18 02:01:01;;;;;;;0.90;0.90;;;-2.50;99.90;;;;;;5032543;28;20231;-69
2021/10/18 02:03:26;;;;;;;0.90;0.90;;;-2.50;99.90;;;;;;5052609;28;20221;-69
2021/10/18 02:05:52;;;;;;;0.82;0.82;;;-2.60;99.90;;;;;;5053678;28;20207;-69
2021/10/18 02:08:18;;;;;;;0.90;0.90;;;-2.60;99.90;;;;;;5016297;28;20217;-68
2021/10/18 02:10:44;;;;;;;0.80;0.80;;;-2.70;99.90;;;;;;5052466;28;20205;-69
2021/10/18 02:13:09;;;;;;;0.90;0.90;;;-2.80;99.90;;;;;;5033170;28;20564;-68
2021/10/18 02:15:36;;;;;;;0.90;0.90;;;-2.80;99.90;;;;;;5052075;28;20201;-68
2021/10/18 02:18:02;;;;;;;0.80;0.80;;;-2.80;99.90;;;;;;5052110;28;20255;-70
2021/10/18 02:20:28;;;;;;;0.90;0.90;;;-2.70;99.90;;;;;;5051820;28;20577;-68
2021/10/18 02:22:53;;;;;;;0.93;0.93;;;-2.60;99.90;;;;;;5052149;28;20204;-69
2021/10/18 02:25:19;;;;;;;0.95;0.95;;;-2.50;99.90;;;;;;5052654;28;20271;-69
2021/10/18 02:27:45;;;;;;;0.90;0.90;;;-2.50;99.90;;;;;;5032724;28;20577;-69
2021/10/18 02:30:11;;;;;;;0.88;0.88;;;-2.50;99.90;;;;;;5033931;28;20206;-69
2021/10/18 02:32:37;;;;;;;0.80;0.80;;;-2.40;99.90;;;;;;5051413;28;20581;-68
2021/10/18 02:35:04;;;;;;;0.93;0.93;;;-2.40;99.90;;;;;;5034112;28;20554;-68
2021/10/18 02:37:30;;;;;;;0.90;0.90;;;-2.50;99.90;;;;;;5051998;28;20248;-69
2021/10/18 02:39:56;;;;;;;0.90;0.90;;;-2.50;99.90;;;;;;5051956;28;20573;-69
2021/10/18 02:42:22;;;;;;;0.82;0.82;;;-2.60;99.90;;;;;;5052876;28;20563;-69
2021/10/18 02:44:47;;;;;;;0.80;0.80;;;-2.60;99.90;;;;;;5053119;28;20205;-69
2021/10/18 02:47:13;;;;;;;0.90;0.90;;;-2.60;99.90;;;;;;5033977;28;20210;-69
2021/10/18 02:49:39;;;;;;;0.90;0.90;;;-2.60;99.90;;;;;;5051875;28;20209;-69
2021/10/18 02:52:05;;;;;;;0.90;0.90;;;-2.60;99.90;;;;;;5052461;28;20548;-69
2021/10/18 02:54:31;;;;;;;1.00;1.00;;;-2.60;99.90;;;;;;5051786;28;20232;-69
2021/10/18 02:56:56;;;;;;;0.80;0.80;;;-2.60;99.90;;;;;;5051511;28;20209;-71
2021/10/18 02:59:22;;;;;;;0.90;0.90;;;-2.60;99.90;;;;;;5051014;28;20214;-69
2021/10/18 03:01:48;;;;;;;0.88;0.88;;;-2.70;99.90;;;;;;5038123;28;20210;-68
2021/10/18 03:04:13;;;;;;;1.00;1.00;;;-2.70;99.90;;;;;;5050616;28;20229;-68
2021/10/18 03:06:39;;;;;;;0.90;0.90;;;-2.80;99.90;;;;;;5051151;28;20229;-70
2021/10/18 03:09:06;;;;;;;0.90;0.90;;;-2.80;99.90;;;;;;5051386;28;20267;-69
2021/10/18 03:11:31;;;;;;;0.80;0.80;;;-2.90;99.90;;;;;;5021496;28;20206;-69
2021/10/18 03:13:57;;;;;;;0.90;0.90;;;-2.90;99.90;;;;;;5044134;28;20217;-69
2021/10/18 03:16:23;;;;;;;0.90;0.90;;;-3.00;99.90;;;;;;5025012;28;20494;-69
2021/10/18 03:18:48;;;;;;;1.00;1.00;;;-3.00;99.90;;;;;;5028865;28;20210;-69
2021/10/18 03:21:14;;;;;;;1.00;1.00;;;-3.00;99.90;;;;;;5040487;28;20233;-69
2021/10/18 03:23:40;;;;;;;0.90;0.90;;;-3.00;99.90;;;;;;5051578;28;20207;-69
2021/10/18 03:26:06;;;;;;;0.90;0.90;;;-3.00;99.90;;;;;;5049423;28;20201;-69
2021/10/18 03:28:32;;;;;;;0.90;0.90;;;-3.00;99.90;;;;;;5051714;28;20201;-68
2021/10/18 03:30:58;;;;;;;0.88;0.88;;;-3.00;99.90;;;;;;5048293;28;20201;-68
2021/10/18 03:33:23;;;;;;;1.00;1.00;;;-3.00;99.90;;;;;;5035748;28;20208;-69
2021/10/18 03:35:49;;;;;;;0.90;0.90;;;-3.00;99.90;;;;;;5051964;28;20225;-69
2021/10/18 03:38:16;;;;;;;0.90;0.90;;;-3.00;99.90;;;;;;5050450;28;20206;-69
2021/10/18 03:40:42;;;;;;;0.88;0.88;;;-3.10;99.90;;;;;;5050115;28;20217;-69
2021/10/18 03:43:07;;;;;;;0.80;0.80;;;-3.10;99.90;;;;;;5050588;28;20204;-69
2021/10/18 03:45:33;;;;;;;0.93;0.93;;;-3.10;99.90;;;;;;5050231;28;20201;-68
2021/10/18 03:47:59;;;;;;;0.90;0.90;;;-3.00;99.90;;;;;;5033426;28;20294;-68
2021/10/18 03:50:25;;;;;;;0.93;0.93;;;-3.00;99.90;;;;;;5034482;28;20202;-68
2021/10/18 03:52:51;;;;;;;0.90;0.90;;;-3.00;99.90;;;;;;5033119;28;20325;-69
2021/10/18 03:55:16;;;;;;;0.90;0.90;;;-3.00;99.90;;;;;;5049942;28;20208;-69
2021/10/18 03:57:42;;;;;;;0.93;0.93;;;-3.10;99.90;;;;;;5048819;28;20208;-68
2021/10/18 04:00:09;;;;;;;0.90;0.90;;;-3.10;99.90;;;;;;5049949;28;20288;-68
2021/10/18 04:02:34;;;;;;;0.90;0.90;;;-3.20;99.90;;;;;;5026600;28;20242;-68
2021/10/18 04:05:00;;;;;;;1.00;1.00;;;-3.30;99.90;;;;;;5031504;28;20736;-68
2021/10/18 04:07:26;;;;;;;0.90;0.90;;;-3.30;99.90;;;;;;5031151;28;20584;-68
2021/10/18 04:09:51;;;;;;;0.90;0.90;;;-3.30;99.90;;;;;;5031441;28;20202;-68
2021/10/18 04:12:17;;;;;;;0.90;0.90;;;-3.40;99.90;;;;;;5031361;28;20377;-69
2021/10/18 04:14:43;;;;;;;0.90;0.90;;;-3.30;99.90;;;;;;5030114;28;20299;-69
2021/10/18 04:17:08;;;;;;;0.90;0.90;;;-3.30;99.90;;;;;;5030046;28;20307;-69
2021/10/18 04:19:34;;;;;;;0.90;0.90;;;-3.30;99.90;;;;;;5029933;28;20711;-68
2021/10/18 04:22:00;;;;;;;0.90;0.90;;;-3.30;99.90;;;;;;5028784;28;20288;-68
2021/10/18 04:24:25;;;;;;;0.80;0.80;;;-3.30;99.90;;;;;;5030921;28;20437;-68
2021/10/18 04:26:51;;;;;;;0.80;0.80;;;-3.30;99.90;;;;;;5029974;28;20206;-69
2021/10/18 04:29:16;;;;;;;0.90;0.90;;;-3.30;99.90;;;;;;5031229;28;20194;-68
2021/10/18 04:31:42;;;;;;;1.00;1.00;;;-3.30;99.90;;;;;;5031213;28;20197;-68
2021/10/18 04:34:08;;;;;;;0.90;0.90;;;-3.30;99.90;;;;;;5031302;28;20213;-69
2021/10/18 04:36:33;;;;;;;0.90;0.90;;;-3.30;99.90;;;;;;5030725;28;20214;-71
2021/10/18 04:38:59;;;;;;;0.73;0.73;;;-3.30;99.90;;;;;;5011295;28;20293;-69
2021/10/18 04:41:25;;;;;;;0.80;0.80;;;-3.30;99.90;;;;;;5029399;28;20206;-69
2021/10/18 04:43:50;;;;;;;0.90;0.90;;;-3.30;99.90;;;;;;5028796;28;20217;-68
2021/10/18 04:46:16;;;;;;;0.80;0.80;;;-3.20;99.90;;;;;;5028655;28;20233;-68
2021/10/18 04:48:43;;;;;;;0.88;0.88;;;-3.20;99.90;;;;;;5029068;28;20206;-68
2021/10/18 04:51:08;;;;;;;0.80;0.80;;;-3.30;99.90;;;;;;5029838;28;20209;-70
2021/10/18 04:53:34;;;;;;;0.80;0.80;;;-3.30;99.90;;;;;;5029364;28;20206;-68
2021/10/18 04:56:00;;;;;;;0.80;0.80;;;-3.30;99.90;;;;;;5029663;28;20202;-68
2021/10/18 04:58:25;;;;;;;0.90;0.90;;;-3.40;99.90;;;;;;5028347;28;20210;-68
2021/10/18 05:00:56;;;;;;;1.30;1.20;;;-3.40;99.90;;;;;;5029421;28;20282;-68
2021/10/18 05:03:25;;;;;;;1.00;1.00;;;-3.50;99.90;;;;;;5029253;28;20229;-68
2021/10/18 05:05:51;;;;;;;0.90;0.90;;;-3.60;99.90;;;;;;5028472;28;20675;-68
2021/10/18 05:08:18;;;;;;;0.85;0.85;;;-3.60;99.90;;;;;;5029504;28;20656;-68
2021/10/18 05:10:44;;;;;;;0.90;0.90;;;-3.60;99.90;;;;;;5028329;28;20229;-68
2021/10/18 05:13:11;;;;;;;0.90;0.90;;;-3.60;99.90;;;;;;5031556;28;20189;-69
2021/10/18 05:15:37;;;;;;;0.98;0.98;;;-3.70;99.90;;;;;;5032007;28;20277;-69
2021/10/18 05:18:04;;;;;;;0.80;0.80;;;-3.70;99.90;;;;;;5033248;28;20202;-68
2021/10/18 05:20:31;;;;;;;0.90;0.90;;;-3.70;99.90;;;;;;5032880;28;20198;-69
2021/10/18 05:22:58;;;;;;;0.90;0.90;;;-3.70;99.90;;;;;;5016857;28;24900;-69
2021/10/18 05:25:24;;;;;;;0.80;0.80;;;-3.70;99.90;;;;;;5034365;28;20257;-69
2021/10/18 05:27:50;;;;;;;0.80;0.80;;;-3.80;99.90;;;;;;5032922;28;20279;-69
2021/10/18 05:30:19;;;;;;;0.90;0.90;;;-3.80;99.90;;;;;;5016385;28;20612;-68
2021/10/18 05:32:46;;;;;;;0.90;0.90;;;-3.80;99.90;;;;;;5033435;28;20209;-69
2021/10/18 05:35:11;;;;;;;0.90;0.90;;;-3.80;99.90;;;;;;5033988;28;20712;-68
2021/10/18 05:37:42;;;;;;;0.90;0.90;;;-3.80;99.90;;;;;;5034099;28;20202;-68
2021/10/18 05:40:09;;;;;;;0.82;0.82;;;-3.80;99.90;;;;;;5032961;28;20221;-68
2021/10/18 05:42:35;;;;;;;1.33;1.23;;;-3.80;99.90;;;;;;5017657;28;20499;-68
2021/10/18 05:45:01;;;;;;;0.98;0.98;;;-3.70;99.90;;;;;;5029484;28;20293;-68
2021/10/18 05:47:26;;;;;;;0.90;0.90;;;-3.70;99.90;;;;;;5033777;28;20210;-69
2021/10/18 05:49:52;;;;;;;1.00;1.00;;;-3.60;99.90;;;;;;5033911;28;20545;-68
2021/10/18 05:52:18;;;;;;;0.90;0.90;;;-3.60;99.90;;;;;;5033801;28;20259;-68
2021/10/18 05:54:44;;;;;;;0.80;0.80;;;-3.70;99.90;;;;;;5033809;28;20646;-69
2021/10/18 05:57:10;;;;;;;0.90;0.90;;;-3.70;99.90;;;;;;5015910;28;20202;-68
2021/10/18 05:59:37;;;;;;;0.80;0.80;;;-3.70;99.90;;;;;;5032303;28;20209;-68
2021/10/18 06:02:04;;;;;;;0.90;0.90;;;-3.70;99.90;;;;;;5031893;28;20203;-68
2021/10/18 06:04:29;;;;;;;0.90;0.90;;;-3.70;99.90;;;;;;5033442;28;20218;-68
2021/10/18 06:06:55;;;;;;;6.38;1.48;;;-3.70;99.90;;;;;;5032693;28;20210;-69
2021/10/18 06:09:21;;;;;;;0.90;0.90;;;-3.70;99.90;;;;;;5015553;28;20216;-69
2021/10/18 06:11:46;;;;;;;0.90;0.90;;;-3.70;99.90;;;;;;5014437;28;20201;-68
2021/10/18 06:14:12;;;;;;;0.90;0.90;;;-3.60;99.90;;;;;;5033531;28;20209;-70
2021/10/18 06:16:38;;;;;;;0.90;0.90;;;-3.60;99.90;;;;;;5032560;28;20517;-69
2021/10/18 06:19:03;;;;;;;0.90;0.90;;;-3.50;99.90;;;;;;5033570;28;20742;-68
2021/10/18 06:21:29;;;;;;;0.80;0.80;;;-3.50;99.90;;;;;;5033499;28;20684;-68
2021/10/18 06:23:55;;;;;;;0.90;0.90;;;-3.50;99.90;;;;;;5029765;28;20256;-68
2021/10/18 06:26:20;;;;;;;0.90;0.90;;;-3.50;99.90;;;;;;5031824;28;20210;-68
2021/10/18 06:28:46;;;;;;;0.90;0.90;;;-3.50;99.90;;;;;;5033258;28;20623;-68
2021/10/18 06:31:12;;;;;;;1.00;1.00;;;-3.50;99.90;;;;;;5030738;28;20233;-68
2021/10/18 06:33:38;;;;;;;0.90;0.90;;;-3.40;99.90;;;;;;5031630;28;20205;-68
2021/10/18 06:36:03;;;;;;;0.90;0.90;;;-3.30;99.90;;;;;;5031686;28;20193;-68
2021/10/18 06:38:29;;;;;;;0.88;0.88;;;-3.30;99.90;;;;;;5031700;28;20206;-69
2021/10/18 06:40:55;;;;;;;0.90;0.90;;;-3.20;99.90;;;;;;5031557;28;20217;-68
2021/10/18 06:43:21;;;;;;;0.90;0.90;;;-3.10;99.90;;;;;;5032671;28;20276;-69
2021/10/18 06:45:48;;;;;;;0.88;0.88;;;-3.10;99.90;;;;;;5031656;28;20209;-68
2021/10/18 06:48:15;;;;;;;0.90;0.90;;;-3.00;99.90;;;;;;5013551;28;20202;-68
2021/10/18 06:50:43;;;;;;;1.00;1.00;;;-3.00;99.90;;;;;;5013794;28;20287;-69
2021/10/18 06:53:17;;;;;;;0.90;0.90;;;-3.00;99.90;;;;;;5030283;28;20729;-70
2021/10/18 06:55:43;;;;;;;0.90;0.90;;;-2.90;99.90;;;;;;5031419;28;20194;-70
2021/10/18 06:58:10;;;;;;;1.40;1.33;;;-2.80;99.90;;;;;;5032522;28;20194;-68
2021/10/18 07:00:36;;;;;;;0.90;0.90;;;-2.70;99.90;;;;;;5029890;28;20623;-68
2021/10/18 07:03:02;;;;;;;1.10;1.10;;;-2.60;99.90;;;;;;5032445;28;20279;-70
2021/10/18 07:05:28;;;;;;;0.80;0.80;;;-2.50;99.90;;;;;;5031091;28;20275;-70
2021/10/18 07:07:53;;;;;;;0.90;0.90;;;-2.50;99.90;;;;;;5031784;28;20265;-69
2021/10/18 07:10:19;;;;;;;0.90;0.90;;;-2.40;99.90;;;;;;5031568;28;20229;-69
2021/10/18 07:12:44;;;;;;;0.90;0.90;;;-2.30;99.90;;;;;;5030810;28;20199;-69
2021/10/18 07:15:10;;;;;;;0.90;0.90;;;-2.20;99.90;;;;;;5030251;28;20198;-69
2021/10/18 07:17:36;;;;;;;0.90;0.90;;;-2.00;99.90;;;;;;5032224;28;20210;-69
2021/10/18 07:20:05;;;;;;;0.88;0.88;;;-1.90;99.90;;;;;;5029839;28;20197;-69
2021/10/18 07:22:40;;;;;;;0.90;0.90;;;-1.80;99.90;;;;;;5014258;28;20210;-69
2021/10/18 07:25:06;;;;;;;0.70;0.70;;;-1.70;99.90;;;;;;5032108;28;20202;-70
2021/10/18 07:27:32;;;;;;;0.80;0.80;;;-1.50;99.90;;;;;;5030801;28;20260;-69
2021/10/18 07:29:57;;;;;;;0.80;0.80;;;-1.40;99.90;;;;;;5031105;28;20569;-69
2021/10/18 07:32:24;;;;;;;0.90;0.90;;;-1.20;99.90;;;;;;5012665;28;20202;-70
2021/10/18 07:34:50;;;;;;;1.08;1.08;;;-1.00;99.90;;;;;;5014059;28;20213;-69
2021/10/18 07:37:18;;;;;;;0.80;0.80;;;-0.90;99.90;;;;;;5031624;28;20197;-70
2021/10/18 07:39:44;;;;;;;0.90;0.90;;;-0.70;99.90;;;;;;5006538;28;20213;-69
2021/10/18 07:42:14;;;;;;;0.80;0.80;;;-0.50;99.90;;;;;;5020727;28;20202;-70
2021/10/18 07:44:41;;;;;;;0.80;0.80;;;-0.40;99.90;;;;;;5013929;28;20202;-69
2021/10/18 07:47:07;;;;;;;0.70;0.70;;;-0.30;99.90;;;;;;5012773;28;20289;-70
2021/10/18 07:49:37;;;;;;;0.80;0.80;;;-0.10;99.90;;;;;;5030583;28;20194;-69
2021/10/18 07:52:04;;;;;;;2.13;1.92;;;0.00;99.90;;;;;;5030614;28;20198;-69
2021/10/18 07:54:30;;;;;;;0.77;0.77;;;0.20;99.90;;;;;;5031079;28;20660;-69
2021/10/18 07:56:56;;;;;;;0.70;0.70;;;0.40;99.90;;;;;;5030570;28;20187;-69
2021/10/18 07:59:22;;;;;;;0.80;0.80;;;0.60;99.90;;;;;;5030034;28;20214;-70
2021/10/18 08:01:48;;;;;;;0.50;0.50;;;0.80;99.90;;;;;;5030166;28;20206;-69
2021/10/18 08:04:14;;;;;;;0.77;0.77;;;1.00;99.90;;;;;;5013838;28;20305;-71
2021/10/18 08:06:40;;;;;;;0.73;0.73;;;1.20;99.90;;;;;;5031221;28;20301;-69
2021/10/18 08:09:09;;;;;;;0.70;0.70;;;1.40;99.90;;;;;;5031041;28;20256;-69
2021/10/18 08:11:35;;;;;;;0.70;0.70;;;1.60;99.90;;;;;;5028720;28;20204;-69
2021/10/18 08:14:01;;;;;;;0.65;0.65;;;1.90;99.90;;;;;;5030472;28;20264;-70
2021/10/18 08:16:27;;;;;;;1.05;0.90;;;2.00;99.90;;;;;;5031289;28;20281;-70
2021/10/18 08:18:53;;;;;;;0.70;0.70;;;2.20;99.90;;;;;;5029936;28;20210;-73
2021/10/18 08:21:19;;;;;;;0.90;0.90;;;2.40;99.90;;;;;;5031129;28;20573;-69
2021/10/18 08:23:45;;;;;;;0.60;0.60;;;2.50;99.90;;;;;;5013504;28;20217;-69
2021/10/18 08:26:11;;;;;;;0.57;0.57;;;2.70;99.90;;;;;;5031253;28;20198;-69
2021/10/18 08:28:36;;;;;;;0.65;0.65;;;2.90;99.90;;;;;;5028503;28;20214;-69
2021/10/18 08:31:03;;;;;;;0.60;0.60;;;3.00;99.90;;;;;;5029828;28;20221;-68
2021/10/18 08:33:28;;;;;;;0.70;0.70;;;3.10;99.90;;;;;;5029693;28;20627;-70
2021/10/18 08:35:54;;;;;;;0.70;0.70;;;3.30;99.90;;;;;;5029281;28;20194;-69
2021/10/18 08:41:15;;;;;;;0.70;0.70;;;3.60;99.90;;;;;;5029856;28;20289;-69
2021/10/18 08:46:07;;;;;;;0.63;0.63;;;4.00;99.90;;;;;;5029852;28;20205;-70
2021/10/18 08:48:34;;;;;;;0.60;0.60;;;4.20;99.90;;;;;;5031156;28;20209;-69
2021/10/18 08:51:00;;;;;;;0.55;0.55;;;4.40;99.90;;;;;;5032345;28;20634;-70
2021/10/18 08:53:25;;;;;;;0.70;0.70;;;4.50;99.90;;;;;;5034841;28;20198;-69
2021/10/18 08:55:51;;;;;;;0.98;0.98;;;4.70;99.90;;;;;;5033659;28;20202;-69
2021/10/18 08:58:17;;;;;;;0.70;0.70;;;4.80;99.90;;;;;;5033309;28;20617;-70
2021/10/18 09:00:51;;;;;;;0.60;0.60;;;4.90;99.90;;;;;;5032060;28;20234;-69
2021/10/18 09:03:32;;;;;;;0.50;0.50;;;5.10;99.90;;;;;;5032768;28;20287;-69
2021/10/18 09:06:14;;;;;;;0.50;0.50;;;5.40;99.90;;;;;;5017066;28;20194;-69
2021/10/18 09:08:40;;;;;;;0.50;0.50;;;5.60;99.90;;;;;;5018320;28;20214;-70
2021/10/18 09:11:12;;;;;;;0.60;0.60;;;5.90;99.90;;;;;;5034938;28;20208;-69
2021/10/18 09:14:01;;;;;;;0.60;0.60;;;6.20;99.90;;;;;;5034577;28;20281;-69
2021/10/18 09:16:28;;;;;;;0.70;0.70;;;6.40;99.90;;;;;;5019937;28;20206;-70
2021/10/18 09:19:09;;;;;;;0.80;0.80;;;6.60;99.90;;;;;;5034416;28;20189;-69
2021/10/18 09:22:04;;;;;;;0.70;0.70;;;6.80;99.90;;;;;;5033058;28;20205;-69
2021/10/18 09:24:30;;;;;;;0.60;0.60;;;7.00;99.90;;;;;;5013488;28;20232;-69
2021/10/18 09:26:58;;;;;;;0.95;0.95;;;7.20;99.90;;;;;;5033067;28;20681;-69
2021/10/18 09:29:44;;;;;;;0.60;0.60;;;7.40;99.90;;;;;;5034056;28;20256;-69
2021/10/18 09:32:10;;;;;;;0.82;0.82;;;7.60;99.90;;;;;;5013993;28;20202;-68
2021/10/18 09:34:38;;;;;;;3.60;1.50;;;7.70;99.90;;;;;;5011982;28;20625;-69
2021/10/18 09:37:09;;;;;;;0.70;0.70;;;7.90;99.90;;;;;;5009980;28;20194;-69
2021/10/18 09:39:41;;;;;;;0.52;0.52;;;7.80;99.90;;;;;;5033907;28;20202;-69
2021/10/18 09:42:18;;;;;;;0.80;0.80;;;7.80;99.90;;;;;;5032825;28;20195;-69
2021/10/18 10:52:52;;;;;;;0.70;0.70;;;9.20;99.90;;;;;;5030400;28;20572;-69
2021/10/18 10:55:24;;;;;;;0.50;0.50;;;9.60;99.90;;;;;;5002907;28;20318;-70
2021/10/18 10:57:53;;;;;;;0.90;0.90;;;9.80;99.90;;;;;;5031803;28;20661;-69
2021/10/18 11:00:39;;;;;;;0.60;0.60;;;9.60;99.90;;;;;;5013823;28;20309;-70
2021/10/18 11:03:23;;;;;;;0.60;0.60;;;9.80;99.90;;;;;;5035370;28;20668;-70
2021/10/18 11:06:04;;;;;;;0.68;0.68;;;9.70;99.90;;;;;;5035006;28;20567;-70
2021/10/18 11:08:31;;;;;;;0.60;0.60;;;9.80;99.90;;;;;;5050846;28;20240;-70
2021/10/18 11:11:09;;;;;;;0.70;0.70;;;9.90;99.90;;;;;;5050465;28;20201;-71
2021/10/18 11:13:50;;;;;;;0.60;0.60;;;10.00;99.90;;;;;;5051015;28;20201;-70
2021/10/18 11:16:24;;;;;;;0.60;0.60;;;10.00;99.90;;;;;;5033003;28;20205;-70
2021/10/18 11:18:56;;;;;;;0.60;0.60;;;10.00;99.90;;;;;;5032745;28;20217;-70
2021/10/18 11:21:27;;;;;;;0.68;0.68;;;10.10;99.90;;;;;;5050439;28;20225;-70
2021/10/18 11:24:04;;;;;;;0.60;0.60;;;10.00;99.90;;;;;;5050704;28;20597;-70
2021/10/18 11:26:41;;;;;;;0.60;0.60;;;10.10;99.90;;;;;;5050353;28;20251;-69
2021/10/18 11:29:10;;;;;;;0.70;0.70;;;10.00;99.90;;;;;;5032560;28;20546;-70
2021/10/18 11:31:38;;;;;;;0.50;0.50;;;10.10;99.90;;;;;;5050412;28;20599;-70
2021/10/18 11:34:11;;;;;;;0.50;0.50;;;10.10;99.90;;;;;;5051766;28;20206;-70
2021/10/18 11:36:45;;;;;;;0.60;0.60;;;10.10;99.90;;;;;;5050308;28;20201;-70
2021/10/18 11:39:25;;;;;;;0.57;0.57;;;10.30;99.90;;;;;;5049223;28;20205;-70
2021/10/18 11:42:09;;;;;;;0.50;0.50;;;10.30;99.90;;;;;;5050532;28;20201;-70
2021/10/18 11:44:53;;;;;;;0.60;0.60;;;10.40;99.90;;;;;;5050167;28;20193;-70
2021/10/18 11:47:30;;;;;;;0.50;0.50;;;10.20;99.90;;;;;;5048976;28;20200;-70
2021/10/18 11:50:06;;;;;;;0.50;0.50;;;10.00;99.90;;;;;;5050536;28;20234;-69
2021/10/18 11:52:33;;;;;;;0.60;0.60;;;10.10;99.90;;;;;;5051361;28;20200;-70
2021/10/18 11:54:59;;;;;;;0.60;0.60;;;10.40;99.90;;;;;;5050109;28;20252;-70
2021/10/18 11:57:27;;;;;;;0.60;0.60;;;10.40;99.90;;;;;;5051282;28;20208;-70
2021/10/18 11:59:53;;;;;;;0.60;0.60;;;10.70;99.90;;;;;;5047795;28;20298;-71
2021/10/18 12:02:23;;;;;;;0.50;0.50;;;10.90;99.90;;;;;;5031685;28;20660;-70
2021/10/18 12:04:57;;;;;;;0.40;0.40;;;11.00;98.80;;;;;;5032435;28;20218;-70
2021/10/18 12:07:48;;;;;;;0.55;0.55;;;10.60;99.90;;;;;;4995854;28;20203;-70
2021/10/18 12:10:26;;;;;;;0.50;0.50;;;10.50;99.80;;;;;;5016055;28;20222;-71
2021/10/18 12:13:06;;;;;;;0.50;0.50;;;10.60;98.30;;;;;;5012297;28;20221;-69
2021/10/18 12:15:44;;;;;;;0.60;0.60;;;10.40;99.90;;;;;;5031241;28;20204;-70
2021/10/18 12:18:11;;;;;;;0.50;0.50;;;10.30;99.90;;;;;;5028795;28;20201;-70
2021/10/18 12:20:42;;;;;;;0.55;0.55;;;10.20;99.90;;;;;;5029872;28;20201;-70
2021/10/18 12:23:33;;;;;;;0.50;0.50;;;10.10;99.90;;;;;;5030195;28;20198;-70
2021/10/18 12:26:05;;;;;;;0.50;0.50;;;9.90;99.90;;;;;;5031276;28;20308;-70
2021/10/18 12:28:42;;;;;;;0.57;0.57;;;9.90;99.90;;;;;;5029957;28;20213;-70
2021/10/18 12:31:30;;;;;;;0.57;0.57;;;9.80;99.90;;;;;;5011000;28;20381;-70
2021/10/18 12:34:22;;;;;;;0.68;0.68;;;10.10;96.90;;;;;;5031241;28;20313;-70
2021/10/18 12:37:05;;;;;;;0.50;0.50;;;10.20;97.30;;;;;;5029651;28;20684;-70
2021/10/18 12:39:42;;;;;;;0.70;0.70;;;10.70;99.40;;;;;;5013178;28;20573;-70
2021/10/18 12:42:21;;;;;;;0.85;0.85;;;11.00;99.90;;;;;;5030055;28;20683;-70
2021/10/18 12:44:49;;;;;;;0.50;0.50;;;11.50;96.90;;;;;;5030956;28;20197;-70
2021/10/18 12:47:23;;;;;;;0.50;0.50;;;11.60;98.70;;;;;;5030913;28;20241;-70
2021/10/18 12:49:53;;;;;;;0.50;0.50;;;11.30;98.30;;;;;;5028765;28;20303;-70
2021/10/18 12:52:42;;;;;;;0.50;0.50;;;11.10;99.90;;;;;;5029765;28;20198;-70
2021/10/18 12:55:18;;;;;;;0.50;0.50;;;10.50;98.30;;;;;;5013268;28;20708;-70
2021/10/18 12:57:51;;;;;;;0.60;0.60;;;9.90;98.40;;;;;;5029019;28;20213;-70
2021/10/18 13:00:20;;;;;;;0.60;0.60;;;9.50;99.90;;;;;;5030845;28;20210;-70
2021/10/18 13:02:46;;;;;;;0.50;0.50;;;9.10;99.90;;;;;;5030438;28;20732;-69
2021/10/18 13:05:19;;;;;;;0.50;0.50;;;8.60;99.90;;;;;;5012483;28;20555;-68
2021/10/18 13:07:49;;;;;;;0.60;0.60;;;8.40;99.90;;;;;;5029590;28;20713;-71
2021/10/18 13:10:15;;;;;;;0.60;0.60;;;8.20;99.90;;;;;;5029618;28;20206;-71
2021/10/18 13:12:41;;;;;;;0.60;0.60;;;8.00;99.90;;;;;;5028349;28;20210;-69
2021/10/18 13:15:08;;;;;;;0.50;0.50;;;7.70;99.90;;;;;;5030848;28;20245;-69
2021/10/18 13:17:34;;;;;;;0.60;0.60;;;7.50;99.90;;;;;;5011732;28;20214;-70
2021/10/18 13:20:00;;;;;;;0.60;0.60;;;7.20;99.90;;;;;;5029578;28;20273;-71
2021/10/18 13:22:25;;;;;;;0.60;0.60;;;7.10;99.90;;;;;;5030590;28;20229;-69
2021/10/18 13:24:53;;;;;;;0.60;0.60;;;6.90;99.90;;;;;;5029822;28;20206;-69
2021/10/18 13:27:19;;;;;;;0.57;0.57;;;6.70;99.90;;;;;;5030649;28;20504;-69
2021/10/18 13:29:45;;;;;;;0.70;0.70;;;6.70;99.90;;;;;;5011600;28;20206;-69
2021/10/18 13:32:12;;;;;;;0.50;0.50;;;6.70;99.90;;;;;;5011987;28;20211;-69
2021/10/18 13:34:38;;;;;;;0.60;0.60;;;6.60;99.90;;;;;;5015193;28;20205;-70
2021/10/18 13:37:04;;;;;;;0.65;0.65;;;6.40;99.90;;;;;;5033478;28;20225;-69
2021/10/18 13:39:30;;;;;;;0.88;0.88;;;6.30;99.90;;;;;;5033924;28;20230;-69
2021/10/18 13:41:55;;;;;;;0.60;0.60;;;6.20;99.90;;;;;;5030441;28;20659;-70
2021/10/18 13:44:21;;;;;;;0.60;0.60;;;6.00;99.90;;;;;;5010289;28;20208;-70
2021/10/18 13:46:47;;;;;;;0.50;0.50;;;5.80;99.90;;;;;;5014810;28;20210;-70
2021/10/18 13:49:13;;;;;;;0.50;0.50;;;5.70;99.90;;;;;;5032882;28;20352;-69
2021/10/18 13:51:40;;;;;;;0.60;0.60;;;5.50;99.90;;;;;;5032464;28;20329;-69
2021/10/18 13:54:07;;;;;;;0.47;0.47;;;5.40;99.90;;;;;;5015641;28;20194;-69
2021/10/18 13:56:33;;;;;;;0.70;0.70;;;5.30;99.90;;;;;;5028568;28;20199;-71
2021/10/18 13:58:59;;;;;;;0.68;0.68;;;5.20;99.90;;;;;;5032532;28;20727;-70
2021/10/18 14:01:25;;;;;;;0.50;0.50;;;5.10;99.90;;;;;;5014516;28;20213;-70
2021/10/18 14:03:51;;;;;;;0.65;0.65;;;4.90;99.90;;;;;;5032550;28;20233;-69
2021/10/18 14:06:16;;;;;;;0.50;0.50;;;4.90;99.90;;;;;;5032320;28;20620;-69
2021/10/18 14:08:42;;;;;;;0.50;0.50;;;4.80;99.90;;;;;;5033617;28;20202;-69